Time;durP1;ratioP1;P1;durP2;ratioP2;P2;SDS_P1;SDS_P2;PMS_P1;PMS_P2;Temp;Humidity;BMP_temperature;BMP_pressure;BME280_temperature;BME280_humidity;BME280_pressure;Samples;Min_cycle;Max_cycle;Signal;HPM_P1;HPM_P2
2022/02/20 00:01:25;;;;;;;126.92;60.38;;;;;;;7.15;71.79;149456.25;1765023;79;21543;-59
2022/02/20 00:03:52;;;;;;;123.33;64.40;;;;;;;7.20;71.11;149466.66;1758342;79;21001;-59
2022/02/20 00:06:19;;;;;;;88.72;46.08;;;;;;;7.23;70.65;149475.69;1764216;79;21033;-60
2022/02/20 00:08:46;;;;;;;50.80;23.85;;;;;;;7.24;70.08;149477.00;1752492;79;21111;-59
2022/02/20 00:11:13;;;;;;;23.00;11.60;;;;;;;7.25;70.05;149479.59;1773937;78;21549;-60
2022/02/20 00:13:39;;;;;;;27.48;10.20;;;;;;;7.23;69.69;149474.42;1770058;78;21075;-60
2022/02/20 00:16:07;;;;;;;28.52;11.10;;;;;;;7.22;69.20;149471.83;1738720;80;21095;-60
2022/02/20 00:18:34;;;;;;;40.12;19.40;;;;;;;7.22;69.15;149471.83;1777538;78;21040;-62
2022/02/20 00:21:03;;;;;;;42.95;21.20;;;;;;;7.20;69.11;149467.92;1780231;78;21549;-58
2022/02/20 00:23:29;;;;;;;50.23;21.00;;;;;;;7.20;69.41;149466.66;1779291;78;21048;-58
2022/02/20 00:25:56;;;;;;;28.80;11.25;;;;;;;7.14;69.58;149453.67;1780781;78;21077;-59
2022/02/20 00:28:27;;;;;;;30.90;10.50;;;;;;;7.10;69.75;149443.33;1774650;78;20949;-58
2022/02/20 00:30:54;;;;;;;25.00;10.13;;;;;;;7.07;69.78;149435.56;1777000;78;21107;-61
2022/02/20 00:33:21;;;;;;;23.83;9.30;;;;;;;7.05;69.71;149430.41;1781009;79;21797;-61
2022/02/20 00:35:48;;;;;;;18.17;8.25;;;;;;;7.03;69.60;149425.22;1773021;78;21087;-61
2022/02/20 00:38:15;;;;;;;22.80;9.20;;;;;;;7.02;69.32;149422.64;1775157;78;21953;-59
2022/02/20 00:40:42;;;;;;;29.50;11.43;;;;;;;7.02;69.55;149423.91;1778553;78;21005;-59
2022/02/20 00:43:09;;;;;;;21.73;8.95;;;;;;;7.01;69.51;149421.31;1779135;78;21051;-59
2022/02/20 00:45:36;;;;;;;27.25;8.95;;;;;;;6.99;69.64;149414.88;1791282;78;21074;-62
2022/02/20 00:48:04;;;;;;;20.92;8.78;;;;;;;6.96;69.64;149408.39;1779495;78;21087;-59
2022/02/20 00:50:31;;;;;;;23.73;9.55;;;;;;;6.93;69.68;149400.63;1770730;78;21814;-59
2022/02/20 00:52:57;;;;;;;28.25;10.15;;;;;;;6.92;69.68;149396.73;1761810;78;21339;-62
2022/02/20 00:55:25;;;;;;;21.15;9.13;;;;;;;6.90;69.87;149392.87;1777058;78;22065;-59
2022/02/20 00:57:54;;;;;;;23.32;9.18;;;;;;;6.86;69.75;149383.80;1778309;78;20933;-61
2022/02/20 01:00:21;;;;;;;24.02;9.38;;;;;;;6.85;69.86;149381.22;1773245;78;21078;-61
2022/02/20 01:02:48;;;;;;;29.18;10.23;;;;;;;6.82;69.90;149373.45;1700282;82;21130;-62
2022/02/20 01:05:14;;;;;;;33.53;12.03;;;;;;;6.80;69.91;149368.28;1775126;78;21079;-60
2022/02/20 01:07:41;;;;;;;21.82;9.88;;;;;;;6.76;70.19;149357.94;1780523;78;21517;-62
2022/02/20 01:10:11;;;;;;;23.10;9.63;;;;;;;6.72;70.19;149347.55;1778406;79;21478;-60
2022/02/20 01:12:38;;;;;;;26.23;11.80;;;;;;;6.68;70.28;149337.20;1760612;79;21168;-60
2022/02/20 01:15:07;;;;;;;22.45;10.95;;;;;;;6.67;70.42;149334.62;1761142;79;21073;-60
2022/02/20 01:17:34;;;;;;;24.47;11.05;;;;;;;6.65;70.57;149329.45;1765019;79;21578;-62
2022/02/20 01:20:01;;;;;;;22.45;11.55;;;;;;;6.62;70.60;149321.69;1762134;79;21017;-61
2022/02/20 01:22:28;;;;;;;28.40;12.03;;;;;;;6.62;70.70;149321.69;1757909;79;21029;-61
2022/02/20 01:24:55;;;;;;;32.88;11.45;;;;;;;6.61;70.11;149319.11;1764359;79;20983;-61
2022/02/20 01:27:23;;;;;;;23.38;9.95;;;;;;;6.62;70.25;149321.69;1752206;79;21529;-62
2022/02/20 01:29:49;;;;;;;26.82;12.03;;;;;;;6.62;70.21;149321.69;1766307;79;21112;-61
2022/02/20 01:32:16;;;;;;;26.80;10.53;;;;;;;6.61;70.01;149319.11;1766069;79;21032;-61
2022/02/20 01:34:43;;;;;;;22.15;9.58;;;;;;;6.59;69.96;149316.53;1756192;81;21096;-61
2022/02/20 01:37:10;;;;;;;27.77;11.12;;;;;;;6.57;69.77;149311.34;1749152;80;21474;-61
2022/02/20 01:39:37;;;;;;;24.57;10.63;;;;;;;6.57;69.82;149311.34;1759716;79;21131;-62
2022/02/20 01:42:07;;;;;;;29.37;9.90;;;;;;;6.56;69.76;149308.77;1763830;79;21439;-61
2022/02/20 01:44:35;;;;;;;26.15;10.98;;;;;;;6.55;69.83;149306.19;1757566;79;22201;-62
2022/02/20 01:47:11;;;;;;;27.93;13.38;;;;;;;6.53;69.69;149299.69;1756991;79;20994;-61
2022/02/20 01:49:40;;;;;;;26.45;11.85;;;;;;;6.54;69.80;149302.28;1763268;79;21038;-58
2022/02/20 01:52:07;;;;;;;26.57;11.48;;;;;;;6.53;69.77;149301.02;1765333;79;21505;-58
2022/02/20 01:54:33;;;;;;;26.70;11.93;;;;;;;6.52;69.68;149298.44;1761006;79;21009;-59
2022/02/20 01:57:00;;;;;;;32.45;12.13;;;;;;;6.50;69.81;149291.94;1755392;79;21025;-58
2022/02/20 01:59:29;;;;;;;29.72;13.45;;;;;;;6.49;69.67;149289.36;1767250;79;21025;-61
2022/02/20 02:01:57;;;;;;;30.80;11.15;;;;;;;6.48;69.78;149288.03;1697011;79;21515;-62
2022/02/20 02:04:26;;;;;;;29.67;10.30;;;;;;;6.45;69.75;149280.28;1762863;79;21391;-59
2022/02/20 02:06:54;;;;;;;25.50;10.10;;;;;;;6.44;69.68;149277.69;1760687;79;21006;-60
2022/02/20 02:09:28;;;;;;;24.45;9.78;;;;;;;6.44;69.64;149277.69;1764359;78;21669;-61
2022/02/20 02:12:06;;;;;;;34.90;15.75;;;;;;;6.43;69.40;149275.11;1762330;80;21489;-62
2022/02/20 02:14:58;;;;;;;34.43;16.87;;;;;;;6.41;69.45;149269.94;1780179;78;21075;-58
2022/02/20 02:17:27;;;;;;;41.42;15.93;;;;;;;6.38;69.44;149263.45;1772449;78;21308;-58
2022/02/20 02:19:56;;;;;;;26.95;11.93;;;;;;;6.35;69.48;149254.44;1753402;78;20997;-59
2022/02/20 02:22:41;;;;;;;22.32;9.48;;;;;;;6.34;69.54;149251.84;1784614;78;21725;-61
2022/02/20 02:25:12;;;;;;;23.15;9.18;;;;;;;6.33;69.63;149250.53;1782267;78;21091;-61
2022/02/20 02:27:44;;;;;;;25.92;9.43;;;;;;;6.29;69.64;149241.47;1782514;78;21501;-61
2022/02/20 02:30:13;;;;;;;23.90;9.00;;;;;;;6.28;69.76;149238.88;1784441;78;22203;-60
2022/02/20 02:32:40;;;;;;;24.75;9.38;;;;;;;6.25;69.73;149231.13;1779878;78;21521;-58
2022/02/20 02:35:09;;;;;;;24.75;11.43;;;;;;;6.22;69.71;149223.37;1780365;78;21394;-58
2022/02/20 02:37:35;;;;;;;25.85;10.95;;;;;;;6.21;69.74;149220.78;1782232;78;21288;-61
2022/02/20 02:40:03;;;;;;;36.10;10.98;;;;;;;6.21;69.67;149220.78;1774313;78;20969;-61
2022/02/20 02:42:30;;;;;;;30.00;10.65;;;;;;;6.20;69.89;149216.94;1781127;78;21079;-61
2022/02/20 02:44:57;;;;;;;34.50;9.75;;;;;;;6.17;69.96;149210.44;1781768;78;21545;-60
2022/02/20 02:47:23;;;;;;;29.12;9.53;;;;;;;6.16;70.02;149207.86;1782602;78;21091;-58
2022/02/20 02:49:50;;;;;;;21.40;9.50;;;;;;;6.14;70.20;149202.69;1774602;78;21070;-59
2022/02/20 02:52:16;;;;;;;28.67;10.30;;;;;;;6.13;70.18;149200.11;1780591;78;21079;-60
2022/02/20 02:54:43;;;;;;;27.82;13.30;;;;;;;6.13;70.24;149200.11;1780417;78;21108;-58
2022/02/20 02:57:10;;;;;;;30.20;12.80;;;;;;;6.11;70.25;149194.94;1777447;78;21096;-61
2022/02/20 02:59:37;;;;;;;47.10;16.03;;;;;;;6.08;70.34;149187.14;1769716;78;21178;-59
2022/02/20 03:02:04;;;;;;;36.00;16.05;;;;;;;6.08;70.27;149187.14;1790505;78;21645;-59
2022/02/20 03:04:33;;;;;;;68.40;34.30;;;;;;;6.08;70.12;149187.14;1782511;78;21003;-61
2022/02/20 03:07:00;;;;;;;73.75;35.23;;;;;;;6.08;70.05;149187.14;1781635;78;21331;-59
2022/02/20 03:09:28;;;;;;;49.77;23.98;;;;;;;6.12;70.02;149198.80;1782913;78;20992;-59
2022/02/20 03:11:54;;;;;;;71.80;29.98;;;;;;;6.15;69.81;149206.55;1783566;78;21075;-59
2022/02/20 03:14:23;;;;;;;70.37;27.70;;;;;;;6.19;69.52;149215.62;1775775;78;21445;-61
2022/02/20 03:16:50;;;;;;;68.25;30.43;;;;;;;6.23;69.46;149224.69;1773502;78;21533;-58
2022/02/20 03:19:17;;;;;;;48.13;22.62;;;;;;;6.25;68.95;149229.84;1752880;78;21827;-58
2022/02/20 03:21:44;;;;;;;28.75;12.98;;;;;;;6.27;68.83;149236.30;1776523;78;21507;-58
2022/02/20 03:24:13;;;;;;;23.05;10.25;;;;;;;6.29;68.52;149241.47;1786697;78;21533;-61
2022/02/20 03:26:41;;;;;;;25.43;11.45;;;;;;;6.32;68.24;149246.69;1774226;78;21063;-59
2022/02/20 03:29:09;;;;;;;21.85;10.30;;;;;;;6.32;68.05;149246.69;1783315;78;21106;-59
2022/02/20 03:31:36;;;;;;;24.30;9.10;;;;;;;6.34;67.70;149251.84;1778123;78;21060;-59
2022/02/20 03:34:04;;;;;;;18.82;9.90;;;;;;;6.37;67.34;149259.59;1777660;78;21410;-59
2022/02/20 03:36:32;;;;;;;19.52;8.65;;;;;;;6.39;67.15;149264.78;1776797;78;20925;-59
2022/02/20 03:38:59;;;;;;;32.03;15.60;;;;;;;6.39;66.84;149264.78;1782061;78;21544;-59
2022/02/20 03:41:27;;;;;;;45.52;20.65;;;;;;;6.39;67.00;149264.78;1781037;78;21099;-60
2022/02/20 03:43:54;;;;;;;82.02;40.10;;;;;;;6.41;67.02;149269.94;1766931;78;21442;-59
2022/02/20 03:46:23;;;;;;;70.57;32.25;;;;;;;6.42;67.08;149272.53;1784113;78;21020;-60
2022/02/20 03:48:57;;;;;;;66.02;32.03;;;;;;;6.41;67.19;149269.94;1773708;78;21012;-60
2022/02/20 03:51:28;;;;;;;127.30;58.30;;;;;;;6.40;67.20;149267.36;1772770;78;21004;-58
2022/02/20 03:53:56;;;;;;;81.25;39.98;;;;;;;6.39;67.22;149264.78;1756990;80;21016;-60
2022/02/20 03:56:22;;;;;;;53.58;26.48;;;;;;;6.39;67.07;149266.05;1786767;78;21910;-58
2022/02/20 03:58:51;;;;;;;35.68;17.65;;;;;;;6.40;67.04;149267.36;1778814;78;21028;-58
2022/02/20 04:01:18;;;;;;;27.17;13.00;;;;;;;6.41;66.52;149269.94;1776418;78;21331;-60
2022/02/20 04:03:47;;;;;;;23.55;10.38;;;;;;;6.43;66.33;149275.11;1780682;78;21426;-59
2022/02/20 04:06:16;;;;;;;28.02;12.37;;;;;;;6.44;65.93;149277.69;1771892;78;21060;-62
2022/02/20 04:08:44;;;;;;;38.00;17.27;;;;;;;6.47;65.55;149285.45;1781369;78;21133;-57
2022/02/20 04:11:11;;;;;;;29.60;12.45;;;;;;;6.50;65.07;149291.94;1785942;78;20970;-61
2022/02/20 04:13:42;;;;;;;31.60;12.37;;;;;;;6.52;64.58;149298.44;1757111;79;21056;-60
2022/02/20 04:16:11;;;;;;;25.85;11.35;;;;;;;6.53;64.54;149301.02;1761808;79;21108;-59
2022/02/20 04:18:39;;;;;;;36.58;15.83;;;;;;;6.56;64.32;149308.77;1744539;79;21943;-60
2022/02/20 04:21:07;;;;;;;44.88;21.70;;;;;;;6.57;64.30;149310.03;1756788;79;22379;-60
2022/02/20 04:23:34;;;;;;;35.13;17.05;;;;;;;6.56;63.99;149308.77;1763752;79;21008;-58
2022/02/20 04:26:02;;;;;;;48.38;22.95;;;;;;;6.56;63.67;149307.45;1766495;79;20989;-60
2022/02/20 04:28:32;;;;;;;28.12;12.58;;;;;;;6.55;63.83;149306.19;1755433;79;21117;-59
2022/02/20 04:31:00;;;;;;;31.02;12.33;;;;;;;6.56;64.50;149308.77;1763168;79;20942;-59
2022/02/20 04:33:26;;;;;;;50.33;22.87;;;;;;;6.53;64.78;149301.02;1766976;79;21094;-58
2022/02/20 04:35:55;;;;;;;27.73;12.60;;;;;;;6.48;65.01;149288.03;1755928;79;21084;-59
2022/02/20 04:38:22;;;;;;;51.75;25.80;;;;;;;6.43;65.32;149276.44;1767183;79;21076;-62
2022/02/20 04:40:49;;;;;;;63.50;29.90;;;;;;;6.40;65.53;149267.36;1764504;79;21039;-62
2022/02/20 04:43:17;;;;;;;40.80;19.75;;;;;;;6.37;65.67;149259.59;1758300;79;21131;-61
2022/02/20 04:45:45;;;;;;;23.20;11.48;;;;;;;6.33;65.78;149250.53;1765170;79;21125;-62
2022/02/20 04:48:13;;;;;;;24.52;9.50;;;;;;;6.30;66.19;149244.09;1766413;79;21111;-60
2022/02/20 04:50:42;;;;;;;20.08;8.45;;;;;;;6.30;66.53;149244.09;1766198;79;21107;-59
2022/02/20 04:53:14;;;;;;;23.00;8.80;;;;;;;6.33;66.82;149250.53;1766381;79;21065;-59
2022/02/20 04:55:42;;;;;;;24.98;8.55;;;;;;;6.35;66.96;149255.70;1764074;79;21044;-61
2022/02/20 04:58:09;;;;;;;22.48;8.43;;;;;;;6.38;67.18;149262.19;1765066;79;21515;-61
2022/02/20 05:00:37;;;;;;;20.85;7.97;;;;;;;6.39;67.21;149266.05;1764547;79;21592;-61
2022/02/20 05:03:10;;;;;;;18.37;7.85;;;;;;;6.40;67.27;149267.36;1766300;79;21040;-61
2022/02/20 05:05:56;;;;;;;19.27;7.42;;;;;;;6.41;67.26;149269.94;1755907;79;21570;-61
2022/02/20 05:08:27;;;;;;;22.85;8.60;;;;;;;6.40;67.37;149267.36;1761835;79;21439;-62
2022/02/20 05:10:54;;;;;;;24.10;8.25;;;;;;;6.40;67.25;149267.36;1764206;79;21129;-60
2022/02/20 05:13:21;;;;;;;22.02;8.20;;;;;;;6.39;67.29;149264.78;1774741;79;21600;-61
2022/02/20 05:15:49;;;;;;;29.72;8.53;;;;;;;6.39;67.23;149264.78;1739630;80;21011;-61
2022/02/20 05:18:16;;;;;;;23.12;8.60;;;;;;;6.37;67.22;149259.59;1772622;78;20964;-59
2022/02/20 05:20:44;;;;;;;21.00;7.95;;;;;;;6.36;67.25;149257.02;1782538;78;21048;-59
2022/02/20 05:23:11;;;;;;;25.40;8.40;;;;;;;6.35;67.25;149255.70;1784542;78;21139;-59
2022/02/20 05:25:38;;;;;;;22.13;8.98;;;;;;;6.34;67.27;149251.84;1757806;80;21327;-59
2022/02/20 05:28:05;;;;;;;16.62;7.40;;;;;;;6.32;67.24;149247.94;1782508;78;21059;-58
2022/02/20 05:30:35;;;;;;;18.32;8.08;;;;;;;6.32;67.24;149246.69;1780081;78;21022;-59
2022/02/20 05:33:03;;;;;;;17.50;7.72;;;;;;;6.30;67.08;149244.09;1771378;78;21044;-61
2022/02/20 05:35:32;;;;;;;17.90;8.08;;;;;;;6.27;67.00;149235.03;1777569;78;21109;-61
2022/02/20 05:37:59;;;;;;;17.10;7.05;;;;;;;6.25;67.01;149231.13;1767806;78;21522;-61
2022/02/20 05:40:26;;;;;;;22.42;7.72;;;;;;;6.25;67.02;149229.84;1780112;78;21100;-60
2022/02/20 05:42:57;;;;;;;19.62;8.18;;;;;;;6.26;66.63;149233.70;1777732;78;21060;-60
2022/02/20 05:45:25;;;;;;;21.17;7.53;;;;;;;6.21;66.60;149219.52;1780033;78;21024;-58
2022/02/20 05:47:54;;;;;;;22.27;8.23;;;;;;;6.15;66.71;149206.55;1779227;79;21142;-59
2022/02/20 05:51:03;;;;;;;20.40;7.80;;;;;;;6.12;66.72;149197.53;1774478;78;21153;-59
2022/02/20 05:53:32;;;;;;;17.92;6.87;;;;;;;6.11;66.84;149196.20;1775159;78;21021;-63
2022/02/20 05:55:59;;;;;;;17.87;6.87;;;;;;;6.16;66.78;149207.86;1768308;79;21508;-60
2022/02/20 05:58:26;;;;;;;18.82;7.45;;;;;;;6.19;66.83;149214.30;1779222;78;21011;-58
2022/02/20 06:01:02;;;;;;;18.55;7.00;;;;;;;6.24;66.81;149228.53;1770895;78;21004;-60
2022/02/20 06:03:28;;;;;;;21.20;7.30;;;;;;;6.25;66.84;149231.13;1773256;78;21048;-58
2022/02/20 06:06:00;;;;;;;20.48;8.28;;;;;;;6.28;66.80;149238.88;1776452;78;21000;-58
2022/02/20 06:08:28;;;;;;;17.50;8.13;;;;;;;6.29;66.81;149240.19;1776165;78;21036;-59
2022/02/20 06:11:03;;;;;;;20.32;8.00;;;;;;;6.29;66.85;149241.47;1775983;78;21419;-58
2022/02/20 06:13:47;;;;;;;19.67;8.00;;;;;;;6.31;66.83;149245.36;1750077;79;21811;-59
2022/02/20 06:16:16;;;;;;;19.37;7.95;;;;;;;6.34;66.89;149251.84;1780132;78;21183;-60
2022/02/20 06:19:01;;;;;;;;;;;;;;;6.35;66.80;149254.44;1783640;78;20958;-59
2022/02/20 06:21:33;;;;;;;29.32;8.30;;;;;;;6.38;66.90;149262.19;1768124;78;20505;-61
2022/02/20 06:24:22;;;;;;;21.52;7.92;;;;;;;6.40;66.90;149267.36;1771649;78;21063;-61
2022/02/20 06:26:58;;;;;;;23.98;8.80;;;;;;;6.42;66.88;149272.53;1767688;78;21203;-61
2022/02/20 06:29:26;;;;;;;22.65;8.45;;;;;;;6.44;66.90;149279.02;1784130;78;21513;-59
2022/02/20 06:31:55;;;;;;;22.27;7.97;;;;;;;6.46;66.88;149282.88;1777672;78;21491;-59
2022/02/20 06:34:23;;;;;;;22.95;8.58;;;;;;;6.49;66.81;149290.63;1773120;78;21034;-58
2022/02/20 06:36:50;;;;;;;23.40;8.35;;;;;;;6.51;66.60;149295.80;1777570;78;21524;-59
2022/02/20 06:39:18;;;;;;;23.35;8.13;;;;;;;6.50;66.02;149291.94;1781305;78;22070;-59
2022/02/20 06:41:45;;;;;;;18.80;7.15;;;;;;;6.44;65.84;149277.69;1778648;78;21004;-60
2022/02/20 06:44:12;;;;;;;21.42;8.33;;;;;;;6.40;65.99;149267.36;1773060;78;21048;-60
2022/02/20 06:46:56;;;;;;;12.33;5.90;;;;;;;6.39;65.81;149266.05;1768727;78;21012;-59
2022/02/20 06:49:43;;;;;;;22.90;7.97;;;;;;;6.37;65.37;149259.59;1784403;78;21616;-60
2022/02/20 06:52:29;;;;;;;24.32;8.60;;;;;;;6.37;65.00;149260.88;1740250;78;22679;-60
2022/02/20 06:55:15;;;;;;;;;;;;;;;6.40;65.02;149267.36;1786494;78;21410;-62
2022/02/20 06:57:57;;;;;;;20.17;7.95;;;;;;;6.44;64.79;149279.02;1780484;78;20630;-60
2022/02/20 07:00:25;;;;;;;26.30;13.05;;;;;;;6.48;64.56;149286.77;1781439;78;21048;-66
2022/02/20 07:02:53;;;;;;;23.40;9.78;;;;;;;6.50;64.61;149293.20;1769259;78;21092;-61
2022/02/20 07:05:20;;;;;;;37.48;14.68;;;;;;;6.55;64.17;149306.19;1770548;78;20932;-62
2022/02/20 07:07:47;;;;;;;68.90;33.75;;;;;;;6.62;64.04;149321.69;1781836;78;21091;-61
2022/02/20 07:10:14;;;;;;;54.20;28.57;;;;;;;6.68;63.48;149337.20;1789361;78;21614;-61
2022/02/20 07:12:42;;;;;;;67.97;38.28;;;;;;;6.72;62.96;149348.87;1773153;78;21040;-63
2022/02/20 07:15:13;;;;;;;53.40;26.60;;;;;;;6.76;62.38;149356.63;1762987;79;21041;-61
2022/02/20 07:17:41;;;;;;;114.90;60.60;;;;;;;6.81;62.29;149369.55;1764147;79;21510;-61
2022/02/20 07:20:09;;;;;;;78.42;38.55;;;;;;;6.85;61.56;149381.22;1758197;79;20965;-61
2022/02/20 07:22:38;;;;;;;71.82;38.25;;;;;;;6.90;61.34;149391.56;1729208;80;21067;-60
2022/02/20 07:25:07;;;;;;;70.05;37.73;;;;;;;6.96;61.36;149408.39;1721848;81;21002;-61
2022/02/20 07:27:38;;;;;;;70.78;42.55;;;;;;;7.01;61.21;149420.05;1720547;81;20987;-59
2022/02/20 07:30:07;;;;;;;100.45;54.75;;;;;;;7.05;61.16;149429.08;1758187;79;21050;-59
2022/02/20 07:32:36;;;;;;;123.02;65.95;;;;;;;7.10;60.83;149442.06;1761393;79;21119;-58
2022/02/20 07:35:04;;;;;;;111.90;59.90;;;;;;;7.11;60.75;149445.91;1759956;79;21440;-60
2022/02/20 07:37:31;;;;;;;82.47;45.75;;;;;;;7.19;60.32;149464.06;1767766;79;21490;-59
2022/02/20 07:39:58;;;;;;;98.22;47.53;;;;;;;7.24;60.06;149477.00;1765720;79;22295;-59
2022/02/20 07:42:25;;;;;;;154.80;82.27;;;;;;;7.25;59.47;149479.59;1760791;79;21527;-60
2022/02/20 07:44:52;;;;;;;110.68;64.67;;;;;;;7.26;59.17;149482.17;1768901;79;20993;-61
2022/02/20 07:47:19;;;;;;;111.37;64.22;;;;;;;7.35;59.15;149504.19;1760521;79;21570;-60
2022/02/20 07:49:46;;;;;;;102.65;59.95;;;;;;;7.44;59.16;149528.78;1763133;79;21077;-59
2022/02/20 07:52:12;;;;;;;94.60;53.42;;;;;;;7.57;59.10;149559.83;1761623;79;21428;-60
2022/02/20 07:54:40;;;;;;;97.78;50.10;;;;;;;7.69;58.85;149589.61;1764673;79;21129;-60
2022/02/20 07:57:07;;;;;;;80.07;42.50;;;;;;;7.80;57.99;149616.81;1758930;79;21029;-60
2022/02/20 07:59:36;;;;;;;147.50;77.08;;;;;;;7.86;57.46;149633.66;1764704;79;21063;-59
2022/02/20 08:02:04;;;;;;;183.80;103.05;;;;;;;7.96;56.97;149657.00;1762466;79;21037;-60
2022/02/20 08:04:31;;;;;;;147.87;83.00;;;;;;;8.03;56.59;149675.11;1753942;79;21482;-60
2022/02/20 08:06:59;;;;;;;70.87;40.48;;;;;;;8.13;56.25;149699.72;1767984;79;21125;-60
2022/02/20 08:09:26;;;;;;;41.33;23.20;;;;;;;8.20;55.63;149717.84;1755694;79;21040;-59
2022/02/20 08:11:54;;;;;;;39.50;21.30;;;;;;;8.24;55.52;149728.19;1767741;79;21088;-62
2022/02/20 08:14:21;;;;;;;83.27;42.27;;;;;;;8.27;55.20;149735.97;1777044;78;21036;-60
2022/02/20 08:16:49;;;;;;;103.42;56.10;;;;;;;8.34;55.16;149751.53;1779148;78;21032;-59
2022/02/20 08:19:16;;;;;;;131.00;75.45;;;;;;;8.36;54.27;149757.98;1750627;80;21203;-62
2022/02/20 08:21:43;;;;;;;65.08;37.28;;;;;;;8.37;54.03;149760.58;1775560;78;21569;-59
2022/02/20 08:24:09;;;;;;;41.83;21.07;;;;;;;8.40;54.00;149768.39;1773191;78;21024;-60
2022/02/20 08:26:36;;;;;;;42.10;19.80;;;;;;;8.44;54.22;149777.44;1774722;78;21088;-61
2022/02/20 08:29:03;;;;;;;94.92;38.00;;;;;;;8.50;54.44;149791.75;1776919;78;20981;-62
2022/02/20 08:31:31;;;;;;;67.00;30.60;;;;;;;8.55;54.50;149806.00;1772272;78;21039;-62
2022/02/20 08:33:58;;;;;;;60.20;28.20;;;;;;;8.65;54.42;149829.31;1775382;78;21867;-62
2022/02/20 08:36:25;;;;;;;114.10;62.03;;;;;;;8.71;54.27;149846.17;1768641;78;21056;-61
2022/02/20 08:38:51;;;;;;;121.02;68.22;;;;;;;8.78;53.63;149863.03;1778711;78;21008;-59
2022/02/20 08:41:18;;;;;;;100.20;57.35;;;;;;;8.83;53.13;149875.97;1775703;79;21071;-59
2022/02/20 08:43:44;;;;;;;113.47;63.30;;;;;;;8.89;52.90;149890.23;1779228;78;21922;-59
2022/02/20 08:46:11;;;;;;;55.03;31.68;;;;;;;8.93;52.48;149899.28;1780884;78;21383;-62
2022/02/20 08:48:40;;;;;;;31.57;14.50;;;;;;;8.93;52.26;149899.28;1776829;78;21051;-61
2022/02/20 08:51:08;;;;;;;31.80;9.83;;;;;;;8.95;52.19;149905.78;1772644;78;21015;-60
2022/02/20 08:53:38;;;;;;;24.25;9.08;;;;;;;8.99;52.04;149914.87;1777583;78;21571;-62
2022/02/20 08:56:06;;;;;;;23.05;6.72;;;;;;;9.07;51.82;149935.59;1739509;80;21612;-61
2022/02/20 08:58:34;;;;;;;26.17;6.75;;;;;;;9.16;51.21;149957.63;1781149;78;21021;-61
2022/02/20 09:01:02;;;;;;;28.30;7.55;;;;;;;9.23;50.50;149974.50;1769127;78;21040;-62
2022/02/20 09:03:30;;;;;;;25.60;7.97;;;;;;;9.32;50.33;149997.81;1780490;78;21048;-62
2022/02/20 09:05:57;;;;;;;26.05;7.55;;;;;;;9.39;50.49;150015.94;1776091;78;20997;-61
2022/02/20 09:08:24;;;;;;;30.57;7.75;;;;;;;9.49;50.68;150039.31;1779336;78;21185;-63
2022/02/20 09:10:52;;;;;;;24.63;7.47;;;;;;;9.54;50.58;150052.27;1776517;78;21044;-61
2022/02/20 09:13:18;;;;;;;26.02;6.42;;;;;;;9.59;50.52;150066.53;1767729;79;21084;-62
2022/02/20 09:15:47;;;;;;;18.35;6.30;;;;;;;9.60;50.38;150069.12;1768871;78;21628;-62
2022/02/20 09:18:13;;;;;;;29.32;6.08;;;;;;;9.60;49.99;150067.81;1784880;78;21043;-62
2022/02/20 09:20:42;;;;;;;19.00;5.70;;;;;;;9.55;49.98;150056.17;1781902;78;21712;-62
2022/02/20 09:23:09;;;;;;;39.90;7.20;;;;;;;9.58;49.91;150062.62;1784285;78;21044;-59
2022/02/20 09:25:35;;;;;;;15.83;6.15;;;;;;;9.58;49.54;150063.95;1781965;78;21007;-61
2022/02/20 09:28:03;;;;;;;15.32;5.75;;;;;;;9.59;49.39;150065.22;1776265;78;21029;-62
2022/02/20 09:30:31;;;;;;;14.85;6.12;;;;;;;9.59;48.69;150066.53;1782578;78;20954;-62
2022/02/20 09:32:58;;;;;;;25.10;5.92;;;;;;;9.53;48.51;150049.67;1781537;78;21504;-63
2022/02/20 09:35:26;;;;;;;15.95;6.00;;;;;;;9.48;48.68;150036.72;1775354;78;21056;-63
2022/02/20 09:37:53;;;;;;;20.97;6.80;;;;;;;9.50;48.76;150041.91;1785165;78;21024;-62
2022/02/20 09:40:20;;;;;;;24.50;7.90;;;;;;;9.53;48.91;150049.67;1782427;78;21037;-63
2022/02/20 09:42:47;;;;;;;20.95;7.62;;;;;;;9.59;49.21;150066.53;1776641;78;21106;-60
2022/02/20 09:45:14;;;;;;;31.10;7.87;;;;;;;9.69;49.37;150089.86;1778843;78;21091;-59
2022/02/20 09:47:43;;;;;;;32.40;7.67;;;;;;;9.77;49.33;150110.64;1744894;80;21012;-61
2022/02/20 09:50:10;;;;;;;24.23;7.90;;;;;;;9.82;49.25;150122.28;1678826;82;21022;-62
2022/02/20 09:52:37;;;;;;;22.15;7.78;;;;;;;9.82;49.34;150123.61;1714882;81;21739;-60
2022/02/20 09:55:06;;;;;;;20.62;6.17;;;;;;;9.87;49.28;150136.56;1732280;81;21167;-59
2022/02/20 09:57:33;;;;;;;16.65;5.80;;;;;;;9.93;48.95;150150.84;1731202;81;22174;-60
2022/02/20 10:00:00;;;;;;;15.08;6.70;;;;;;;9.99;48.59;150165.12;1728860;81;21021;-59
2022/02/20 10:02:34;;;;;;;24.98;7.00;;;;;;;10.04;48.23;150179.34;1732887;81;21109;-60
2022/02/20 10:05:01;;;;;;;17.30;6.23;;;;;;;10.10;48.30;150192.36;1729832;81;21060;-59
2022/02/20 10:07:36;;;;;;;16.65;6.40;;;;;;;10.20;48.34;150218.28;1735964;81;21267;-59
2022/02/20 10:10:29;;;;;;;13.28;5.75;;;;;;;10.30;47.78;150244.25;1724643;81;21668;-59
2022/02/20 10:12:59;;;;;;;13.00;5.03;;;;;;;10.41;47.55;150270.23;1728414;81;21506;-62
2022/02/20 10:15:40;;;;;;;10.65;5.37;;;;;;;10.47;46.32;150285.78;1734569;80;21099;-61
2022/02/20 10:18:27;;;;;;;12.58;5.25;;;;;;;10.52;46.17;150297.47;1738094;80;21047;-59
2022/02/20 10:21:26;;;;;;;11.83;5.03;;;;;;;10.55;45.71;150306.58;1777610;78;21074;-62
2022/02/20 10:24:13;;;;;;;11.33;4.53;;;;;;;10.55;45.52;150306.58;1777609;78;21921;-62
2022/02/20 10:27:09;;;;;;;9.13;3.58;;;;;;;10.58;44.93;150314.36;1776465;78;21000;-61
2022/02/20 10:30:09;;;;;;;9.45;3.40;;;;;;;10.64;44.22;150327.33;1777040;78;21557;-62
2022/02/20 10:32:36;;;;;;;10.03;4.15;;;;;;;10.68;43.42;150337.70;1758076;80;21052;-61
2022/02/20 10:35:09;;;;;;;7.33;3.70;;;;;;;10.69;43.01;150341.61;1717254;81;21052;-61
2022/02/20 10:37:38;;;;;;;8.73;3.62;;;;;;;10.72;42.71;150348.06;1779461;78;39186;-61
2022/02/20 10:40:30;;;;;;;13.45;4.17;;;;;;;10.72;42.54;150348.06;1779184;78;21690;-61
2022/02/20 10:43:00;;;;;;;8.43;3.80;;;;;;;10.76;42.60;150358.50;1776132;78;21532;-61
2022/02/20 10:45:33;;;;;;;7.95;3.25;;;;;;;10.79;42.70;150366.28;1767761;78;20949;-62
2022/02/20 10:48:04;;;;;;;12.60;3.60;;;;;;;10.75;42.21;150355.91;1774918;78;21017;-62
2022/02/20 10:50:32;;;;;;;18.60;4.53;;;;;;;10.72;42.04;150348.06;1774322;78;21960;-62
2022/02/20 10:53:12;;;;;;;24.32;5.80;;;;;;;10.72;42.22;150348.06;1772179;78;21051;-62
2022/02/20 10:55:44;;;;;;;15.38;5.83;;;;;;;10.72;42.90;150349.39;1776793;78;21080;-61
2022/02/20 10:58:21;;;;;;;26.05;6.15;;;;;;;10.69;43.41;150340.30;1780711;78;21434;-63
2022/02/20 11:00:58;;;;;;;22.60;6.10;;;;;;;10.69;43.60;150340.30;1769008;78;21119;-61
2022/02/20 11:03:28;;;;;;;20.15;6.10;;;;;;;10.73;43.48;150351.98;1773324;78;21049;-61
2022/02/20 11:05:56;;;;;;;19.60;5.75;;;;;;;10.78;43.32;150363.69;1763002;78;21600;-61
2022/02/20 11:08:27;;;;;;;28.87;6.53;;;;;;;10.83;42.96;150376.66;1772737;78;20974;-61
2022/02/20 11:10:54;;;;;;;12.78;3.83;;;;;;;10.86;42.78;150383.16;1770921;78;21043;-62
2022/02/20 11:13:23;;;;;;;10.48;4.12;;;;;;;10.87;42.10;150387.02;1770526;79;21454;-62
2022/02/20 11:15:52;;;;;;;15.08;5.75;;;;;;;10.86;41.64;150384.44;1755354;78;21045;-62
2022/02/20 11:18:21;;;;;;;12.63;4.58;;;;;;;10.85;42.04;150380.56;1761163;79;21057;-64
2022/02/20 11:20:52;;;;;;;17.70;5.20;;;;;;;10.82;42.06;150372.73;1753957;79;21046;-62
2022/02/20 11:23:25;;;;;;;20.25;5.22;;;;;;;10.80;42.57;150368.87;1760053;79;21096;-61
2022/02/20 11:25:54;;;;;;;15.40;4.90;;;;;;;10.83;42.70;150376.66;1759292;78;21451;-60
2022/02/20 11:28:21;;;;;;;13.35;4.33;;;;;;;10.83;42.49;150376.66;1757915;79;21415;-63
2022/02/20 11:30:48;;;;;;;10.95;4.60;;;;;;;10.85;41.94;150381.84;1765132;79;21065;-63